Terminal Aerodrome Forecast
Issued by NWS Sioux Falls, SD

Home | Current Version | Previous Version | Text Only | Print | Product List | Glossary On
Versions: 1 2 3 4 5 6 7 8 9 10 11 12 13 14 15 16
000
FTUS43 KFSD 152320
TAFFSD
TAF
KFSD 152320Z 1600/1624 14013G19KT P6SM BKN050
     FM160200 14007KT P6SM BKN035
     FM160900 VRB04KT P6SM OVC020
     FM161500 VRB03KT P6SM SCT025
     FM162200 03006KT P6SM SCT035=

USA.gov is the U.S. government's official web portal to all federal, state and local government web resources and services.